sensor_id;sensor_type;location;lat;lon;timestamp;P1;durP1;ratioP1;P2;durP2;ratioP2
82374;SDS011;72005;50.496;15.798;2023-11-19T00:00:50;37.40;;;16.67;;
82374;SDS011;72005;50.496;15.798;2023-11-19T00:03:36;26.55;;;13.52;;
82374;SDS011;72005;50.496;15.798;2023-11-19T00:06:03;26.63;;;12.90;;
82374;SDS011;72005;50.496;15.798;2023-11-19T00:08:30;21.50;;;11.98;;
82374;SDS011;72005;50.496;15.798;2023-11-19T00:10:55;21.25;;;12.27;;
82374;SDS011;72005;50.496;15.798;2023-11-19T00:13:21;22.30;;;12.18;;
82374;SDS011;72005;50.496;15.798;2023-11-19T00:15:48;21.50;;;12.35;;
82374;SDS011;72005;50.496;15.798;2023-11-19T00:18:14;23.15;;;12.57;;
82374;SDS011;72005;50.496;15.798;2023-11-19T00:20:39;19.27;;;10.70;;
82374;SDS011;72005;50.496;15.798;2023-11-19T00:23:05;18.17;;;10.85;;
82374;SDS011;72005;50.496;15.798;2023-11-19T00:25:31;17.17;;;10.05;;
82374;SDS011;72005;50.496;15.798;2023-11-19T00:27:57;14.13;;;8.85;;
82374;SDS011;72005;50.496;15.798;2023-11-19T00:30:22;16.33;;;9.65;;
82374;SDS011;72005;50.496;15.798;2023-11-19T00:32:48;18.30;;;9.25;;
82374;SDS011;72005;50.496;15.798;2023-11-19T00:35:14;14.35;;;8.98;;
82374;SDS011;72005;50.496;15.798;2023-11-19T00:37:40;16.75;;;8.95;;
82374;SDS011;72005;50.496;15.798;2023-11-19T00:40:07;14.18;;;8.70;;
82374;SDS011;72005;50.496;15.798;2023-11-19T00:42:36;19.90;;;10.30;;
82374;SDS011;72005;50.496;15.798;2023-11-19T00:45:01;21.63;;;10.77;;
82374;SDS011;72005;50.496;15.798;2023-11-19T00:47:27;18.55;;;9.98;;
82374;SDS011;72005;50.496;15.798;2023-11-19T00:49:53;12.18;;;8.40;;
82374;SDS011;72005;50.496;15.798;2023-11-19T00:52:19;18.98;;;10.27;;
82374;SDS011;72005;50.496;15.798;2023-11-19T00:54:45;17.00;;;9.70;;
82374;SDS011;72005;50.496;15.798;2023-11-19T00:57:11;17.95;;;9.63;;
82374;SDS011;72005;50.496;15.798;2023-11-19T00:59:37;13.35;;;8.48;;
82374;SDS011;72005;50.496;15.798;2023-11-19T01:02:03;10.25;;;7.18;;
82374;SDS011;72005;50.496;15.798;2023-11-19T01:04:33;12.63;;;7.60;;
82374;SDS011;72005;50.496;15.798;2023-11-19T01:07:02;10.68;;;6.93;;
82374;SDS011;72005;50.496;15.798;2023-11-19T01:09:31;13.90;;;6.90;;
82374;SDS011;72005;50.496;15.798;2023-11-19T01:12:00;11.65;;;7.65;;
82374;SDS011;72005;50.496;15.798;2023-11-19T01:14:27;10.70;;;6.93;;
82374;SDS011;72005;50.496;15.798;2023-11-19T01:16:53;12.15;;;7.13;;
82374;SDS011;72005;50.496;15.798;2023-11-19T01:19:19;11.60;;;6.63;;
82374;SDS011;72005;50.496;15.798;2023-11-19T01:21:48;12.63;;;7.97;;
82374;SDS011;72005;50.496;15.798;2023-11-19T01:24:14;11.18;;;6.95;;
82374;SDS011;72005;50.496;15.798;2023-11-19T01:26:41;12.20;;;7.75;;
82374;SDS011;72005;50.496;15.798;2023-11-19T01:29:11;10.90;;;7.15;;
82374;SDS011;72005;50.496;15.798;2023-11-19T01:31:42;14.85;;;7.65;;
82374;SDS011;72005;50.496;15.798;2023-11-19T01:34:09;13.40;;;6.60;;
82374;SDS011;72005;50.496;15.798;2023-11-19T01:36:37;11.05;;;6.60;;
82374;SDS011;72005;50.496;15.798;2023-11-19T01:39:02;11.70;;;7.50;;
82374;SDS011;72005;50.496;15.798;2023-11-19T01:41:36;11.57;;;7.60;;
82374;SDS011;72005;50.496;15.798;2023-11-19T01:44:01;12.38;;;7.43;;
82374;SDS011;72005;50.496;15.798;2023-11-19T01:46:28;13.27;;;7.97;;
82374;SDS011;72005;50.496;15.798;2023-11-19T01:48:55;11.27;;;7.45;;
82374;SDS011;72005;50.496;15.798;2023-11-19T01:51:21;15.40;;;8.23;;
82374;SDS011;72005;50.496;15.798;2023-11-19T01:53:47;11.50;;;6.85;;
82374;SDS011;72005;50.496;15.798;2023-11-19T01:56:14;12.80;;;7.82;;
82374;SDS011;72005;50.496;15.798;2023-11-19T01:58:41;12.02;;;7.68;;
82374;SDS011;72005;50.496;15.798;2023-11-19T02:01:10;14.60;;;8.10;;
82374;SDS011;72005;50.496;15.798;2023-11-19T02:03:37;11.48;;;7.65;;
82374;SDS011;72005;50.496;15.798;2023-11-19T02:06:03;10.50;;;7.22;;
82374;SDS011;72005;50.496;15.798;2023-11-19T02:08:30;10.70;;;7.28;;
82374;SDS011;72005;50.496;15.798;2023-11-19T02:10:56;13.55;;;8.18;;
82374;SDS011;72005;50.496;15.798;2023-11-19T02:13:23;11.65;;;7.78;;
82374;SDS011;72005;50.496;15.798;2023-11-19T02:15:50;12.63;;;7.97;;
82374;SDS011;72005;50.496;15.798;2023-11-19T02:18:20;11.02;;;7.45;;
82374;SDS011;72005;50.496;15.798;2023-11-19T02:20:50;15.32;;;9.02;;
82374;SDS011;72005;50.496;15.798;2023-11-19T02:23:17;13.02;;;7.38;;
82374;SDS011;72005;50.496;15.798;2023-11-19T02:25:46;12.55;;;7.50;;
82374;SDS011;72005;50.496;15.798;2023-11-19T02:28:18;12.35;;;7.93;;
82374;SDS011;72005;50.496;15.798;2023-11-19T02:30:44;10.18;;;7.47;;
82374;SDS011;72005;50.496;15.798;2023-11-19T02:33:10;11.55;;;7.78;;
82374;SDS011;72005;50.496;15.798;2023-11-19T02:35:36;11.68;;;7.65;;
82374;SDS011;72005;50.496;15.798;2023-11-19T02:38:02;11.52;;;7.50;;
82374;SDS011;72005;50.496;15.798;2023-11-19T02:40:32;13.15;;;8.40;;
82374;SDS011;72005;50.496;15.798;2023-11-19T02:42:58;12.88;;;7.65;;
82374;SDS011;72005;50.496;15.798;2023-11-19T02:45:24;12.82;;;8.50;;
82374;SDS011;72005;50.496;15.798;2023-11-19T02:47:51;14.00;;;8.02;;
82374;SDS011;72005;50.496;15.798;2023-11-19T02:50:18;12.02;;;7.43;;
82374;SDS011;72005;50.496;15.798;2023-11-19T02:52:50;12.15;;;7.75;;
82374;SDS011;72005;50.496;15.798;2023-11-19T02:55:17;13.63;;;7.57;;
82374;SDS011;72005;50.496;15.798;2023-11-19T02:57:43;12.63;;;8.20;;
82374;SDS011;72005;50.496;15.798;2023-11-19T03:00:21;15.90;;;8.55;;
82374;SDS011;72005;50.496;15.798;2023-11-19T03:02:57;13.60;;;8.45;;
82374;SDS011;72005;50.496;15.798;2023-11-19T03:05:35;12.18;;;7.47;;
82374;SDS011;72005;50.496;15.798;2023-11-19T03:08:01;13.85;;;8.88;;
82374;SDS011;72005;50.496;15.798;2023-11-19T03:10:27;14.25;;;8.45;;
82374;SDS011;72005;50.496;15.798;2023-11-19T03:12:54;15.35;;;9.05;;
82374;SDS011;72005;50.496;15.798;2023-11-19T03:15:22;12.18;;;8.55;;
82374;SDS011;72005;50.496;15.798;2023-11-19T03:17:48;13.75;;;8.52;;
82374;SDS011;72005;50.496;15.798;2023-11-19T03:20:13;11.32;;;8.20;;
82374;SDS011;72005;50.496;15.798;2023-11-19T03:22:42;20.58;;;8.45;;
82374;SDS011;72005;50.496;15.798;2023-11-19T03:25:09;15.20;;;8.40;;
82374;SDS011;72005;50.496;15.798;2023-11-19T03:27:36;14.68;;;9.00;;
82374;SDS011;72005;50.496;15.798;2023-11-19T03:30:04;15.32;;;8.55;;
82374;SDS011;72005;50.496;15.798;2023-11-19T03:32:34;15.10;;;7.72;;
82374;SDS011;72005;50.496;15.798;2023-11-19T03:35:01;15.25;;;8.85;;
82374;SDS011;72005;50.496;15.798;2023-11-19T03:37:29;17.42;;;8.63;;
82374;SDS011;72005;50.496;15.798;2023-11-19T03:39:56;14.40;;;8.52;;
82374;SDS011;72005;50.496;15.798;2023-11-19T03:42:27;12.88;;;7.78;;
82374;SDS011;72005;50.496;15.798;2023-11-19T03:44:55;15.20;;;8.48;;
82374;SDS011;72005;50.496;15.798;2023-11-19T03:47:21;11.70;;;7.63;;
82374;SDS011;72005;50.496;15.798;2023-11-19T03:49:50;14.27;;;8.50;;
82374;SDS011;72005;50.496;15.798;2023-11-19T03:52:16;18.17;;;9.40;;
82374;SDS011;72005;50.496;15.798;2023-11-19T03:54:43;12.15;;;6.85;;
82374;SDS011;72005;50.496;15.798;2023-11-19T03:57:09;13.88;;;8.15;;
82374;SDS011;72005;50.496;15.798;2023-11-19T03:59:38;26.65;;;8.93;;
82374;SDS011;72005;50.496;15.798;2023-11-19T04:02:04;24.65;;;8.18;;
82374;SDS011;72005;50.496;15.798;2023-11-19T04:04:30;23.30;;;6.90;;
82374;SDS011;72005;50.496;15.798;2023-11-19T04:06:56;63.55;;;10.18;;
82374;SDS011;72005;50.496;15.798;2023-11-19T04:09:22;23.52;;;7.13;;
82374;SDS011;72005;50.496;15.798;2023-11-19T04:11:47;55.97;;;8.50;;
82374;SDS011;72005;50.496;15.798;2023-11-19T04:14:13;44.05;;;8.80;;
82374;SDS011;72005;50.496;15.798;2023-11-19T04:16:40;36.55;;;7.80;;
82374;SDS011;72005;50.496;15.798;2023-11-19T04:19:06;24.45;;;7.20;;
82374;SDS011;72005;50.496;15.798;2023-11-19T04:21:32;14.50;;;6.75;;
82374;SDS011;72005;50.496;15.798;2023-11-19T04:23:58;65.00;;;7.53;;
82374;SDS011;72005;50.496;15.798;2023-11-19T04:26:24;106.05;;;7.85;;
82374;SDS011;72005;50.496;15.798;2023-11-19T04:28:50;58.72;;;7.50;;
82374;SDS011;72005;50.496;15.798;2023-11-19T04:31:15;19.42;;;6.55;;
82374;SDS011;72005;50.496;15.798;2023-11-19T04:33:42;118.45;;;9.38;;
82374;SDS011;72005;50.496;15.798;2023-11-19T04:36:09;26.83;;;6.95;;
82374;SDS011;72005;50.496;15.798;2023-11-19T04:38:35;78.30;;;7.28;;
82374;SDS011;72005;50.496;15.798;2023-11-19T04:41:02;92.93;;;7.70;;
82374;SDS011;72005;50.496;15.798;2023-11-19T04:43:31;174.52;;;9.82;;
82374;SDS011;72005;50.496;15.798;2023-11-19T04:45:57;170.70;;;9.43;;
82374;SDS011;72005;50.496;15.798;2023-11-19T04:48:23;258.42;;;11.73;;
82374;SDS011;72005;50.496;15.798;2023-11-19T04:50:49;269.45;;;10.88;;
82374;SDS011;72005;50.496;15.798;2023-11-19T04:53:16;80.22;;;7.03;;
82374;SDS011;72005;50.496;15.798;2023-11-19T04:55:42;214.30;;;8.48;;
82374;SDS011;72005;50.496;15.798;2023-11-19T04:58:08;197.32;;;9.57;;
82374;SDS011;72005;50.496;15.798;2023-11-19T05:00:34;240.48;;;10.30;;
82374;SDS011;72005;50.496;15.798;2023-11-19T05:03:00;280.00;;;10.55;;
82374;SDS011;72005;50.496;15.798;2023-11-19T05:05:26;247.23;;;8.55;;
82374;SDS011;72005;50.496;15.798;2023-11-19T05:07:52;217.13;;;9.00;;
82374;SDS011;72005;50.496;15.798;2023-11-19T05:10:18;401.52;;;13.63;;
82374;SDS011;72005;50.496;15.798;2023-11-19T05:12:44;244.68;;;12.05;;
82374;SDS011;72005;50.496;15.798;2023-11-19T05:15:10;200.38;;;9.27;;
82374;SDS011;72005;50.496;15.798;2023-11-19T05:17:37;257.27;;;10.13;;
82374;SDS011;72005;50.496;15.798;2023-11-19T05:20:04;426.13;;;15.07;;
82374;SDS011;72005;50.496;15.798;2023-11-19T05:22:30;443.83;;;13.73;;
82374;SDS011;72005;50.496;15.798;2023-11-19T05:24:56;334.83;;;9.85;;
82374;SDS011;72005;50.496;15.798;2023-11-19T05:27:22;346.15;;;10.75;;
82374;SDS011;72005;50.496;15.798;2023-11-19T05:29:49;546.78;;;18.77;;
82374;SDS011;72005;50.496;15.798;2023-11-19T05:32:15;332.42;;;12.05;;
82374;SDS011;72005;50.496;15.798;2023-11-19T05:34:40;197.43;;;8.63;;
82374;SDS011;72005;50.496;15.798;2023-11-19T05:37:07;264.77;;;9.88;;
82374;SDS011;72005;50.496;15.798;2023-11-19T05:39:35;373.52;;;15.60;;
82374;SDS011;72005;50.496;15.798;2023-11-19T05:42:01;257.85;;;9.98;;
82374;SDS011;72005;50.496;15.798;2023-11-19T05:44:26;239.45;;;8.88;;
82374;SDS011;72005;50.496;15.798;2023-11-19T05:46:52;243.02;;;10.77;;
82374;SDS011;72005;50.496;15.798;2023-11-19T05:49:18;147.63;;;8.50;;
82374;SDS011;72005;50.496;15.798;2023-11-19T05:51:44;207.82;;;10.00;;
82374;SDS011;72005;50.496;15.798;2023-11-19T05:54:11;293.05;;;12.95;;
82374;SDS011;72005;50.496;15.798;2023-11-19T05:56:39;65.05;;;7.15;;
82374;SDS011;72005;50.496;15.798;2023-11-19T05:59:04;272.60;;;11.02;;
82374;SDS011;72005;50.496;15.798;2023-11-19T06:01:35;461.38;;;17.27;;
82374;SDS011;72005;50.496;15.798;2023-11-19T06:04:01;147.65;;;8.82;;
82374;SDS011;72005;50.496;15.798;2023-11-19T06:06:28;665.03;;;22.23;;
82374;SDS011;72005;50.496;15.798;2023-11-19T06:08:54;378.80;;;12.57;;
82374;SDS011;72005;50.496;15.798;2023-11-19T06:11:20;433.90;;;14.25;;
82374;SDS011;72005;50.496;15.798;2023-11-19T06:13:46;374.83;;;13.23;;
82374;SDS011;72005;50.496;15.798;2023-11-19T06:16:13;461.70;;;17.25;;
82374;SDS011;72005;50.496;15.798;2023-11-19T06:18:39;171.45;;;10.48;;
82374;SDS011;72005;50.496;15.798;2023-11-19T06:21:06;395.42;;;14.82;;
82374;SDS011;72005;50.496;15.798;2023-11-19T06:23:32;344.10;;;13.45;;
82374;SDS011;72005;50.496;15.798;2023-11-19T06:25:58;196.32;;;8.95;;
82374;SDS011;72005;50.496;15.798;2023-11-19T06:28:24;354.55;;;14.45;;
82374;SDS011;72005;50.496;15.798;2023-11-19T06:30:50;204.07;;;9.32;;
82374;SDS011;72005;50.496;15.798;2023-11-19T06:33:16;297.27;;;11.15;;
82374;SDS011;72005;50.496;15.798;2023-11-19T06:35:42;412.95;;;15.15;;
82374;SDS011;72005;50.496;15.798;2023-11-19T06:38:07;296.48;;;14.82;;
82374;SDS011;72005;50.496;15.798;2023-11-19T06:40:33;230.90;;;11.23;;
82374;SDS011;72005;50.496;15.798;2023-11-19T06:43:03;180.50;;;9.40;;
82374;SDS011;72005;50.496;15.798;2023-11-19T06:45:29;184.80;;;8.88;;
82374;SDS011;72005;50.496;15.798;2023-11-19T06:47:55;266.92;;;11.93;;
82374;SDS011;72005;50.496;15.798;2023-11-19T06:50:21;406.38;;;14.95;;
82374;SDS011;72005;50.496;15.798;2023-11-19T06:52:46;244.93;;;10.25;;
82374;SDS011;72005;50.496;15.798;2023-11-19T06:55:12;368.92;;;19.17;;
82374;SDS011;72005;50.496;15.798;2023-11-19T06:57:38;260.63;;;35.47;;
82374;SDS011;72005;50.496;15.798;2023-11-19T07:00:05;264.75;;;19.25;;
82374;SDS011;72005;50.496;15.798;2023-11-19T07:02:31;244.15;;;23.15;;
82374;SDS011;72005;50.496;15.798;2023-11-19T07:04:57;301.70;;;39.00;;
82374;SDS011;72005;50.496;15.798;2023-11-19T07:07:23;165.68;;;42.50;;
82374;SDS011;72005;50.496;15.798;2023-11-19T07:09:49;139.75;;;32.95;;
82374;SDS011;72005;50.496;15.798;2023-11-19T07:12:15;211.75;;;18.75;;
82374;SDS011;72005;50.496;15.798;2023-11-19T07:14:41;216.02;;;26.92;;
82374;SDS011;72005;50.496;15.798;2023-11-19T07:17:07;202.00;;;28.17;;
82374;SDS011;72005;50.496;15.798;2023-11-19T07:19:34;84.72;;;20.27;;
82374;SDS011;72005;50.496;15.798;2023-11-19T07:22:01;166.98;;;25.67;;
82374;SDS011;72005;50.496;15.798;2023-11-19T07:24:27;167.10;;;19.35;;
82374;SDS011;72005;50.496;15.798;2023-11-19T07:26:53;166.43;;;34.38;;
82374;SDS011;72005;50.496;15.798;2023-11-19T07:29:19;238.38;;;23.85;;
82374;SDS011;72005;50.496;15.798;2023-11-19T07:31:48;140.88;;;15.57;;
82374;SDS011;72005;50.496;15.798;2023-11-19T07:34:14;105.55;;;14.63;;
82374;SDS011;72005;50.496;15.798;2023-11-19T07:36:40;205.07;;;15.20;;
82374;SDS011;72005;50.496;15.798;2023-11-19T07:39:06;39.90;;;9.00;;
82374;SDS011;72005;50.496;15.798;2023-11-19T07:41:32;18.38;;;9.15;;
82374;SDS011;72005;50.496;15.798;2023-11-19T07:43:58;46.33;;;18.77;;
82374;SDS011;72005;50.496;15.798;2023-11-19T07:46:24;35.40;;;13.80;;
82374;SDS011;72005;50.496;15.798;2023-11-19T07:48:51;91.57;;;21.73;;
82374;SDS011;72005;50.496;15.798;2023-11-19T07:51:17;92.65;;;34.38;;
82374;SDS011;72005;50.496;15.798;2023-11-19T07:53:43;133.60;;;21.75;;
82374;SDS011;72005;50.496;15.798;2023-11-19T07:56:09;136.77;;;20.23;;
82374;SDS011;72005;50.496;15.798;2023-11-19T07:58:36;103.07;;;15.52;;
82374;SDS011;72005;50.496;15.798;2023-11-19T08:01:04;136.15;;;34.53;;
82374;SDS011;72005;50.496;15.798;2023-11-19T08:03:30;138.25;;;47.70;;
82374;SDS011;72005;50.496;15.798;2023-11-19T08:05:56;88.18;;;30.98;;
82374;SDS011;72005;50.496;15.798;2023-11-19T08:08:24;151.30;;;19.77;;
82374;SDS011;72005;50.496;15.798;2023-11-19T08:10:50;190.00;;;19.45;;
82374;SDS011;72005;50.496;15.798;2023-11-19T08:13:17;42.08;;;12.60;;
82374;SDS011;72005;50.496;15.798;2023-11-19T08:15:43;85.90;;;13.63;;
82374;SDS011;72005;50.496;15.798;2023-11-19T08:18:09;193.57;;;16.80;;
82374;SDS011;72005;50.496;15.798;2023-11-19T08:20:34;228.65;;;17.55;;
82374;SDS011;72005;50.496;15.798;2023-11-19T08:23:02;118.97;;;14.32;;
82374;SDS011;72005;50.496;15.798;2023-11-19T08:25:28;66.32;;;16.38;;
82374;SDS011;72005;50.496;15.798;2023-11-19T08:27:54;117.85;;;19.90;;
82374;SDS011;72005;50.496;15.798;2023-11-19T08:30:20;66.75;;;14.52;;
82374;SDS011;72005;50.496;15.798;2023-11-19T08:32:45;95.25;;;17.25;;
82374;SDS011;72005;50.496;15.798;2023-11-19T08:35:11;133.85;;;23.25;;
82374;SDS011;72005;50.496;15.798;2023-11-19T08:37:37;95.55;;;11.35;;
82374;SDS011;72005;50.496;15.798;2023-11-19T08:40:03;166.45;;;25.38;;
82374;SDS011;72005;50.496;15.798;2023-11-19T08:42:30;237.88;;;20.48;;
82374;SDS011;72005;50.496;15.798;2023-11-19T08:44:56;238.73;;;15.82;;
82374;SDS011;72005;50.496;15.798;2023-11-19T08:47:21;209.65;;;15.82;;
82374;SDS011;72005;50.496;15.798;2023-11-19T08:49:50;191.70;;;12.98;;
82374;SDS011;72005;50.496;15.798;2023-11-19T08:52:17;73.03;;;11.57;;
82374;SDS011;72005;50.496;15.798;2023-11-19T08:54:43;138.40;;;14.32;;
82374;SDS011;72005;50.496;15.798;2023-11-19T08:57:09;200.57;;;17.13;;
82374;SDS011;72005;50.496;15.798;2023-11-19T08:59:34;191.98;;;28.70;;
82374;SDS011;72005;50.496;15.798;2023-11-19T09:02:00;268.88;;;16.58;;
82374;SDS011;72005;50.496;15.798;2023-11-19T09:04:27;414.02;;;26.17;;
82374;SDS011;72005;50.496;15.798;2023-11-19T09:06:53;361.67;;;26.05;;
82374;SDS011;72005;50.496;15.798;2023-11-19T09:09:18;183.50;;;25.65;;
82374;SDS011;72005;50.496;15.798;2023-11-19T09:11:44;229.80;;;25.67;;
82374;SDS011;72005;50.496;15.798;2023-11-19T09:14:10;313.38;;;34.47;;
82374;SDS011;72005;50.496;15.798;2023-11-19T09:16:35;245.23;;;31.70;;
82374;SDS011;72005;50.496;15.798;2023-11-19T09:19:01;144.90;;;13.98;;
82374;SDS011;72005;50.496;15.798;2023-11-19T09:21:28;238.85;;;16.45;;
82374;SDS011;72005;50.496;15.798;2023-11-19T09:23:57;230.50;;;15.35;;
82374;SDS011;72005;50.496;15.798;2023-11-19T09:26:23;163.48;;;17.77;;
82374;SDS011;72005;50.496;15.798;2023-11-19T09:28:48;142.52;;;29.48;;
82374;SDS011;72005;50.496;15.798;2023-11-19T09:31:14;217.23;;;18.20;;
82374;SDS011;72005;50.496;15.798;2023-11-19T09:33:40;102.13;;;15.63;;
82374;SDS011;72005;50.496;15.798;2023-11-19T09:36:06;288.75;;;28.42;;
82374;SDS011;72005;50.496;15.798;2023-11-19T09:38:32;49.20;;;17.63;;
82374;SDS011;72005;50.496;15.798;2023-11-19T09:40:58;75.53;;;15.48;;
82374;SDS011;72005;50.496;15.798;2023-11-19T09:43:26;177.38;;;18.50;;
82374;SDS011;72005;50.496;15.798;2023-11-19T09:45:53;187.73;;;45.92;;
82374;SDS011;72005;50.496;15.798;2023-11-19T09:48:21;113.45;;;18.52;;
82374;SDS011;72005;50.496;15.798;2023-11-19T09:50:50;291.83;;;17.63;;
82374;SDS011;72005;50.496;15.798;2023-11-19T09:53:17;231.25;;;38.00;;
82374;SDS011;72005;50.496;15.798;2023-11-19T09:55:43;585.75;;;229.85;;
82374;SDS011;72005;50.496;15.798;2023-11-19T09:58:08;378.52;;;130.40;;
82374;SDS011;72005;50.496;15.798;2023-11-19T10:00:37;523.83;;;109.07;;
82374;SDS011;72005;50.496;15.798;2023-11-19T10:03:03;308.10;;;104.45;;
82374;SDS011;72005;50.496;15.798;2023-11-19T10:05:30;335.20;;;47.65;;
82374;SDS011;72005;50.496;15.798;2023-11-19T10:07:56;131.88;;;32.60;;
82374;SDS011;72005;50.496;15.798;2023-11-19T10:10:22;176.32;;;20.88;;
82374;SDS011;72005;50.496;15.798;2023-11-19T10:12:50;39.20;;;14.98;;
82374;SDS011;72005;50.496;15.798;2023-11-19T10:15:17;38.50;;;10.13;;
82374;SDS011;72005;50.496;15.798;2023-11-19T10:17:46;22.05;;;11.65;;
82374;SDS011;72005;50.496;15.798;2023-11-19T10:20:12;196.65;;;11.90;;
82374;SDS011;72005;50.496;15.798;2023-11-19T10:22:38;18.65;;;8.20;;
82374;SDS011;72005;50.496;15.798;2023-11-19T10:25:04;87.03;;;5.25;;
82374;SDS011;72005;50.496;15.798;2023-11-19T10:27:30;13.13;;;7.07;;
82374;SDS011;72005;50.496;15.798;2023-11-19T10:29:59;28.50;;;14.07;;
82374;SDS011;72005;50.496;15.798;2023-11-19T10:32:25;9.95;;;3.53;;
82374;SDS011;72005;50.496;15.798;2023-11-19T10:34:50;11.45;;;3.38;;
82374;SDS011;72005;50.496;15.798;2023-11-19T10:37:28;3.80;;;3.03;;
82374;SDS011;72005;50.496;15.798;2023-11-19T10:39:57;15.60;;;3.08;;
82374;SDS011;72005;50.496;15.798;2023-11-19T10:42:23;11.30;;;3.15;;
82374;SDS011;72005;50.496;15.798;2023-11-19T10:44:49;10.38;;;3.13;;
82374;SDS011;72005;50.496;15.798;2023-11-19T10:47:15;15.88;;;2.92;;
82374;SDS011;72005;50.496;15.798;2023-11-19T10:49:44;17.15;;;3.42;;
82374;SDS011;72005;50.496;15.798;2023-11-19T10:52:12;17.45;;;3.13;;
82374;SDS011;72005;50.496;15.798;2023-11-19T10:54:44;3.92;;;2.78;;
82374;SDS011;72005;50.496;15.798;2023-11-19T10:57:21;9.40;;;3.22;;
82374;SDS011;72005;50.496;15.798;2023-11-19T10:59:55;9.70;;;3.50;;
82374;SDS011;72005;50.496;15.798;2023-11-19T11:02:26;63.72;;;4.75;;
82374;SDS011;72005;50.496;15.798;2023-11-19T11:04:54;21.42;;;4.22;;
82374;SDS011;72005;50.496;15.798;2023-11-19T11:07:21;149.68;;;6.18;;
82374;SDS011;72005;50.496;15.798;2023-11-19T11:09:51;75.45;;;4.65;;
82374;SDS011;72005;50.496;15.798;2023-11-19T11:12:17;11.02;;;5.57;;
82374;SDS011;72005;50.496;15.798;2023-11-19T11:14:47;18.25;;;6.18;;
82374;SDS011;72005;50.496;15.798;2023-11-19T11:17:14;22.45;;;9.10;;
82374;SDS011;72005;50.496;15.798;2023-11-19T11:19:43;28.95;;;4.43;;
82374;SDS011;72005;50.496;15.798;2023-11-19T11:22:09;6.43;;;4.03;;
82374;SDS011;72005;50.496;15.798;2023-11-19T11:33:00;2.65;;;2.45;;
82374;SDS011;72005;50.496;15.798;2023-11-19T11:38:27;3.85;;;2.95;;
82374;SDS011;72005;50.496;15.798;2023-11-19T11:43:48;7.05;;;2.70;;
82374;SDS011;72005;50.496;15.798;2023-11-19T11:49:03;3.97;;;2.80;;
82374;SDS011;72005;50.496;15.798;2023-11-19T12:02:07;18.48;;;8.90;;
82374;SDS011;72005;50.496;15.798;2023-11-19T12:04:37;11.02;;;6.60;;
82374;SDS011;72005;50.496;15.798;2023-11-19T12:07:15;10.48;;;6.40;;
82374;SDS011;72005;50.496;15.798;2023-11-19T12:09:46;17.13;;;7.25;;
82374;SDS011;72005;50.496;15.798;2023-11-19T12:12:32;4.18;;;3.20;;
82374;SDS011;72005;50.496;15.798;2023-11-19T12:15:00;5.57;;;3.10;;
82374;SDS011;72005;50.496;15.798;2023-11-19T12:17:49;4.03;;;3.10;;
82374;SDS011;72005;50.496;15.798;2023-11-19T12:20:14;4.28;;;2.88;;
82374;SDS011;72005;50.496;15.798;2023-11-19T12:22:42;8.90;;;3.03;;
82374;SDS011;72005;50.496;15.798;2023-11-19T12:25:10;3.55;;;2.53;;
82374;SDS011;72005;50.496;15.798;2023-11-19T12:27:40;6.95;;;2.53;;
82374;SDS011;72005;50.496;15.798;2023-11-19T12:30:07;3.50;;;2.50;;
82374;SDS011;72005;50.496;15.798;2023-11-19T12:32:40;7.88;;;2.67;;
82374;SDS011;72005;50.496;15.798;2023-11-19T12:35:10;2.95;;;2.45;;
82374;SDS011;72005;50.496;15.798;2023-11-19T12:37:46;7.97;;;2.58;;
82374;SDS011;72005;50.496;15.798;2023-11-19T12:40:18;4.85;;;1.98;;
82374;SDS011;72005;50.496;15.798;2023-11-19T12:42:51;3.53;;;2.40;;
82374;SDS011;72005;50.496;15.798;2023-11-19T12:45:21;3.20;;;2.40;;
82374;SDS011;72005;50.496;15.798;2023-11-19T12:47:49;18.80;;;2.85;;
82374;SDS011;72005;50.496;15.798;2023-11-19T12:50:17;5.78;;;2.53;;
82374;SDS011;72005;50.496;15.798;2023-11-19T12:52:56;10.00;;;3.03;;
82374;SDS011;72005;50.496;15.798;2023-11-19T12:55:26;24.80;;;3.67;;
82374;SDS011;72005;50.496;15.798;2023-11-19T12:57:58;9.48;;;2.47;;
82374;SDS011;72005;50.496;15.798;2023-11-19T13:00:25;43.13;;;2.85;;
82374;SDS011;72005;50.496;15.798;2023-11-19T13:02:55;11.32;;;1.80;;
82374;SDS011;72005;50.496;15.798;2023-11-19T13:10:30;52.53;;;4.07;;
82374;SDS011;72005;50.496;15.798;2023-11-19T13:13:00;91.18;;;5.55;;
82374;SDS011;72005;50.496;15.798;2023-11-19T13:15:30;37.45;;;12.57;;
82374;SDS011;72005;50.496;15.798;2023-11-19T13:17:57;60.97;;;12.27;;
82374;SDS011;72005;50.496;15.798;2023-11-19T13:20:23;85.05;;;20.00;;
82374;SDS011;72005;50.496;15.798;2023-11-19T13:23:09;65.22;;;18.00;;
82374;SDS011;72005;50.496;15.798;2023-11-19T13:25:47;53.85;;;21.48;;
82374;SDS011;72005;50.496;15.798;2023-11-19T13:28:12;73.05;;;19.92;;
82374;SDS011;72005;50.496;15.798;2023-11-19T13:30:38;53.97;;;11.15;;
82374;SDS011;72005;50.496;15.798;2023-11-19T13:33:04;41.83;;;6.35;;
82374;SDS011;72005;50.496;15.798;2023-11-19T13:35:29;20.83;;;4.90;;
82374;SDS011;72005;50.496;15.798;2023-11-19T13:37:55;63.58;;;6.15;;
82374;SDS011;72005;50.496;15.798;2023-11-19T13:40:21;62.42;;;3.85;;
82374;SDS011;72005;50.496;15.798;2023-11-19T13:42:47;75.07;;;4.18;;
82374;SDS011;72005;50.496;15.798;2023-11-19T13:45:14;116.93;;;12.02;;
82374;SDS011;72005;50.496;15.798;2023-11-19T13:47:41;99.38;;;7.65;;
82374;SDS011;72005;50.496;15.798;2023-11-19T13:50:11;87.80;;;6.45;;
82374;SDS011;72005;50.496;15.798;2023-11-19T13:52:39;89.82;;;6.30;;
82374;SDS011;72005;50.496;15.798;2023-11-19T13:55:07;64.20;;;5.88;;
82374;SDS011;72005;50.496;15.798;2023-11-19T13:57:37;115.65;;;5.82;;
82374;SDS011;72005;50.496;15.798;2023-11-19T14:00:04;129.65;;;29.30;;
82374;SDS011;72005;50.496;15.798;2023-11-19T14:02:32;103.07;;;15.57;;
82374;SDS011;72005;50.496;15.798;2023-11-19T14:04:59;77.07;;;5.03;;
82374;SDS011;72005;50.496;15.798;2023-11-19T14:07:25;114.82;;;5.43;;
82374;SDS011;72005;50.496;15.798;2023-11-19T14:09:51;159.75;;;4.72;;
82374;SDS011;72005;50.496;15.798;2023-11-19T14:12:17;44.22;;;2.90;;
82374;SDS011;72005;50.496;15.798;2023-11-19T14:14:43;51.47;;;4.68;;
82374;SDS011;72005;50.496;15.798;2023-11-19T14:17:09;35.40;;;2.40;;
82374;SDS011;72005;50.496;15.798;2023-11-19T14:19:36;65.18;;;4.13;;
82374;SDS011;72005;50.496;15.798;2023-11-19T14:22:02;28.83;;;2.28;;
82374;SDS011;72005;50.496;15.798;2023-11-19T14:24:28;49.22;;;2.58;;
82374;SDS011;72005;50.496;15.798;2023-11-19T14:26:53;32.83;;;3.60;;
82374;SDS011;72005;50.496;15.798;2023-11-19T14:29:19;80.43;;;4.63;;
82374;SDS011;72005;50.496;15.798;2023-11-19T14:31:45;27.65;;;2.58;;
82374;SDS011;72005;50.496;15.798;2023-11-19T14:34:10;57.55;;;3.92;;
82374;SDS011;72005;50.496;15.798;2023-11-19T14:36:36;21.23;;;2.80;;
82374;SDS011;72005;50.496;15.798;2023-11-19T14:39:01;30.98;;;7.75;;
82374;SDS011;72005;50.496;15.798;2023-11-19T14:41:29;132.30;;;21.25;;
82374;SDS011;72005;50.496;15.798;2023-11-19T14:43:54;44.22;;;17.88;;
82374;SDS011;72005;50.496;15.798;2023-11-19T14:46:20;61.47;;;18.92;;